createdAt,value
2023-02-27T00:00:54.748Z,17.30
2023-02-27T00:03:21.751Z,21.45
2023-02-27T00:05:48.686Z,10.27
2023-02-27T00:08:15.402Z,13.60
2023-02-27T00:10:42.207Z,8.88
2023-02-27T00:13:10.154Z,9.40
2023-02-27T00:15:38.398Z,11.63
2023-02-27T00:18:05.374Z,12.98
2023-02-27T00:20:38.230Z,17.73
2023-02-27T00:23:06.559Z,14.32
2023-02-27T00:25:34.997Z,18.02
2023-02-27T00:28:01.924Z,19.35
2023-02-27T00:30:28.718Z,12.32
2023-02-27T00:32:56.027Z,13.32
2023-02-27T00:35:24.136Z,13.88
2023-02-27T00:37:50.976Z,15.95
2023-02-27T00:40:18.036Z,9.07
2023-02-27T00:42:46.338Z,14.55
2023-02-27T00:45:13.370Z,12.10
2023-02-27T00:47:40.148Z,14.95
2023-02-27T00:50:07.182Z,11.05
2023-02-27T00:52:34.743Z,15.27
2023-02-27T00:55:01.522Z,13.82
2023-02-27T00:57:28.252Z,20.63
2023-02-27T00:59:54.982Z,24.45
2023-02-27T01:02:21.691Z,16.65
2023-02-27T01:04:48.388Z,21.77
2023-02-27T01:07:15.274Z,16.88
2023-02-27T01:09:42.056Z,22.98
2023-02-27T01:12:08.817Z,17.10
2023-02-27T01:14:35.902Z,21.52
2023-02-27T01:17:03.020Z,14.23
2023-02-27T01:19:29.764Z,18.02
2023-02-27T01:21:56.715Z,24.65
2023-02-27T01:24:23.454Z,15.52
2023-02-27T01:26:52.702Z,18.63
2023-02-27T01:29:19.512Z,20.75
2023-02-27T01:31:46.505Z,24.42
2023-02-27T01:34:13.278Z,19.63
2023-02-27T01:36:39.971Z,15.75
2023-02-27T01:39:07.099Z,16.95
2023-02-27T01:41:33.851Z,13.13
2023-02-27T01:44:07.871Z,18.48
2023-02-27T01:46:35.575Z,23.63
2023-02-27T01:49:11.335Z,20.30
2023-02-27T01:51:41.927Z,22.10
2023-02-27T01:54:10.850Z,22.42
2023-02-27T01:56:38.635Z,23.52
2023-02-27T01:59:09.924Z,22.70
2023-02-27T02:01:39.193Z,22.83
2023-02-27T02:04:24.072Z,25.95
2023-02-27T02:06:59.850Z,24.13
2023-02-27T02:09:29.208Z,14.13
2023-02-27T02:11:57.818Z,28.33
2023-02-27T02:14:24.465Z,18.45
2023-02-27T02:17:28.208Z,14.85
2023-02-27T02:19:57.745Z,22.35
2023-02-27T02:22:36.622Z,33.00
2023-02-27T02:25:22.075Z,21.58
2023-02-27T02:30:56.166Z,33.15
2023-02-27T02:33:36.792Z,18.45
2023-02-27T02:36:34.707Z,23.63
2023-02-27T02:39:38.944Z,21.20
2023-02-27T02:42:25.480Z,20.42
2023-02-27T02:45:10.778Z,29.38
2023-02-27T02:47:49.517Z,30.35
2023-02-27T02:50:30.488Z,24.63
2023-02-27T02:53:15.810Z,23.35
2023-02-27T02:55:58.013Z,21.00
2023-02-27T02:58:53.323Z,29.60
2023-02-27T03:01:42.873Z,24.42
2023-02-27T03:04:12.753Z,19.23
2023-02-27T03:07:08.823Z,23.15
2023-02-27T03:09:45.912Z,25.60
2023-02-27T03:12:18.561Z,22.75
2023-02-27T03:15:06.382Z,31.98
2023-02-27T03:17:42.130Z,23.10
2023-02-27T03:20:12.697Z,27.77
2023-02-27T03:22:45.797Z,28.70
2023-02-27T03:25:13.955Z,20.60
2023-02-27T03:27:53.780Z,26.05
2023-02-27T03:31:01.070Z,27.50
2023-02-27T03:33:33.382Z,21.17
2023-02-27T03:36:30.488Z,26.48
2023-02-27T03:39:39.313Z,28.15
2023-02-27T03:42:12.614Z,17.17
2023-02-27T03:44:58.712Z,31.05
2023-02-27T03:47:25.538Z,26.75
2023-02-27T03:49:52.393Z,22.73
2023-02-27T03:52:24.387Z,34.42
2023-02-27T03:54:57.965Z,27.23
2023-02-27T03:57:24.818Z,21.67
2023-02-27T03:59:51.731Z,28.90
2023-02-27T04:02:18.603Z,28.05
2023-02-27T04:04:45.595Z,28.98
2023-02-27T04:07:37.298Z,18.00
2023-02-27T04:10:16.287Z,28.25
2023-02-27T04:12:53.105Z,30.15
2023-02-27T04:15:53.942Z,31.30
2023-02-27T04:18:42.273Z,34.10
2023-02-27T04:21:50.869Z,26.02
2023-02-27T04:24:17.532Z,33.33
2023-02-27T04:26:53.235Z,33.30
2023-02-27T04:29:49.313Z,30.63
2023-02-27T04:32:35.255Z,28.98
2023-02-27T04:35:12.973Z,30.27
2023-02-27T04:38:01.054Z,35.10
2023-02-27T04:40:34.646Z,28.52
2023-02-27T04:43:06.037Z,28.42
2023-02-27T04:45:35.640Z,30.50
2023-02-27T04:48:17.112Z,28.17
2023-02-27T04:50:52.234Z,30.17
2023-02-27T04:53:58.539Z,29.73
2023-02-27T04:56:30.894Z,21.95
2023-02-27T04:59:02.136Z,28.13
2023-02-27T05:01:37.059Z,34.45
2023-02-27T05:04:07.431Z,44.42
2023-02-27T05:06:38.025Z,29.30
2023-02-27T05:09:23.029Z,27.17
2023-02-27T05:11:58.104Z,46.00
2023-02-27T05:14:39.144Z,24.80
2023-02-27T05:17:30.786Z,27.00
2023-02-27T05:19:58.046Z,31.90
2023-02-27T05:22:43.024Z,23.13
2023-02-27T05:25:13.052Z,28.45
2023-02-27T05:27:48.915Z,32.33
2023-02-27T05:30:27.893Z,27.10
2023-02-27T05:33:00.689Z,35.28
2023-02-27T05:35:37.108Z,31.67
2023-02-27T05:38:18.054Z,40.13
2023-02-27T05:40:52.223Z,42.58
2023-02-27T05:43:27.809Z,36.28
2023-02-27T05:46:01.501Z,38.58
2023-02-27T05:48:33.325Z,26.60
2023-02-27T05:51:00.259Z,39.65
2023-02-27T05:53:33.797Z,38.10
2023-02-27T05:56:04.391Z,44.67
2023-02-27T05:58:43.342Z,35.28
2023-02-27T06:01:11.874Z,48.08
2023-02-27T06:03:40.611Z,39.58
2023-02-27T06:06:14.336Z,35.05
2023-02-27T06:08:41.022Z,36.25
2023-02-27T06:11:08.091Z,38.85
2023-02-27T06:13:34.757Z,43.45
2023-02-27T06:16:01.453Z,49.40
2023-02-27T06:18:28.155Z,57.22
2023-02-27T06:20:54.926Z,62.50
2023-02-27T06:23:21.637Z,53.60
2023-02-27T06:25:49.232Z,59.47
2023-02-27T06:28:15.988Z,53.50
2023-02-27T06:30:43.922Z,70.05
2023-02-27T06:33:12.532Z,55.22
2023-02-27T06:35:39.578Z,51.15
2023-02-27T06:38:06.356Z,56.83
2023-02-27T06:40:33.117Z,97.95
2023-02-27T06:42:59.862Z,85.63
2023-02-27T06:45:26.527Z,59.25
2023-02-27T06:47:53.332Z,57.47
2023-02-27T06:50:20.294Z,50.55
2023-02-27T06:52:47.023Z,81.80
2023-02-27T06:55:13.918Z,71.50
2023-02-27T06:57:40.563Z,50.88
2023-02-27T07:00:11.859Z,47.03
2023-02-27T07:02:38.760Z,63.88
2023-02-27T07:05:08.135Z,34.38
2023-02-27T07:07:37.977Z,32.00
2023-02-27T07:10:08.675Z,41.40
2023-02-27T07:12:35.334Z,49.72
2023-02-27T07:15:05.497Z,40.10
2023-02-27T07:17:32.481Z,38.60
2023-02-27T07:19:59.144Z,30.20
2023-02-27T07:22:25.835Z,35.95
2023-02-27T07:24:52.587Z,34.30
2023-02-27T07:27:19.289Z,27.83
2023-02-27T07:29:46.448Z,34.72
2023-02-27T07:32:13.272Z,37.75
2023-02-27T07:34:39.939Z,40.22
2023-02-27T07:37:06.600Z,37.20
2023-02-27T07:39:33.310Z,32.22
2023-02-27T07:42:00.279Z,32.33
2023-02-27T07:44:27.623Z,47.08
2023-02-27T07:46:54.478Z,35.80
2023-02-27T07:49:21.166Z,32.45
2023-02-27T07:51:47.802Z,39.15
2023-02-27T07:54:14.467Z,30.70
2023-02-27T07:56:41.111Z,30.77
2023-02-27T07:59:09.220Z,36.47
2023-02-27T08:01:36.011Z,39.88
2023-02-27T08:04:02.722Z,34.70
2023-02-27T08:06:30.063Z,31.58
2023-02-27T08:08:57.022Z,25.10
2023-02-27T08:11:24.269Z,31.63
2023-02-27T08:14:06.423Z,35.08
2023-02-27T08:16:33.409Z,34.92
2023-02-27T08:19:01.154Z,30.70
2023-02-27T08:21:28.725Z,28.17
2023-02-27T08:23:55.683Z,29.38
2023-02-27T08:26:23.167Z,24.85
2023-02-27T08:28:49.994Z,25.42
2023-02-27T08:31:16.740Z,32.40
2023-02-27T08:33:43.404Z,32.90
2023-02-27T08:36:10.260Z,32.72
2023-02-27T08:38:37.189Z,35.17
2023-02-27T08:41:04.436Z,39.75
2023-02-27T08:43:31.090Z,30.88
2023-02-27T08:45:57.889Z,37.55
2023-02-27T08:48:25.192Z,32.83
2023-02-27T08:50:52.322Z,32.25
2023-02-27T08:53:19.558Z,40.95
2023-02-27T08:55:51.251Z,34.78
2023-02-27T08:58:18.492Z,33.20
2023-02-27T09:00:45.912Z,32.45
2023-02-27T09:03:12.896Z,24.90
2023-02-27T09:05:40.599Z,30.63
2023-02-27T09:08:07.482Z,34.80
2023-02-27T09:10:34.947Z,30.85
2023-02-27T09:13:02.323Z,23.63
2023-02-27T09:15:30.241Z,22.58
2023-02-27T09:18:02.444Z,37.60
2023-02-27T09:20:35.979Z,35.10
2023-02-27T09:23:04.097Z,31.17
2023-02-27T09:25:31.178Z,28.60
2023-02-27T09:27:58.176Z,32.13
2023-02-27T09:30:25.498Z,35.38
2023-02-27T09:32:52.597Z,26.30
2023-02-27T09:35:22.392Z,29.35
2023-02-27T09:37:49.730Z,31.30
2023-02-27T09:40:37.906Z,29.70
2023-02-27T09:43:14.235Z,26.83
2023-02-27T09:45:41.631Z,36.60
2023-02-27T09:48:27.119Z,38.28
2023-02-27T09:50:54.033Z,38.28
2023-02-27T09:53:27.638Z,31.33
2023-02-27T09:56:26.372Z,26.70
2023-02-27T09:59:30.970Z,29.25
2023-02-27T10:02:09.695Z,27.65
2023-02-27T10:04:54.873Z,31.00
2023-02-27T10:07:36.953Z,28.02
2023-02-27T10:10:13.809Z,25.17
2023-02-27T10:13:07.785Z,21.77
2023-02-27T10:15:41.824Z,34.90
2023-02-27T10:18:26.995Z,30.50
2023-02-27T10:20:59.068Z,20.75
2023-02-27T10:23:34.528Z,29.00
2023-02-27T10:26:01.707Z,28.60
2023-02-27T10:28:33.488Z,24.80
2023-02-27T10:31:02.300Z,26.58
2023-02-27T10:33:38.459Z,31.13
2023-02-27T10:36:20.601Z,28.25
2023-02-27T10:38:59.779Z,32.22
2023-02-27T10:41:28.411Z,29.38
2023-02-27T10:43:58.798Z,28.90
2023-02-27T10:46:29.555Z,28.70
2023-02-27T10:49:00.311Z,23.98
2023-02-27T10:51:31.618Z,30.02
2023-02-27T10:54:24.714Z,35.35
2023-02-27T10:57:04.430Z,32.17
2023-02-27T10:59:40.309Z,27.27
2023-02-27T11:02:38.298Z,33.28
2023-02-27T11:05:26.820Z,25.55
2023-02-27T11:07:55.940Z,38.03
2023-02-27T11:10:31.537Z,19.42
2023-02-27T11:13:07.451Z,29.90
2023-02-27T11:15:36.701Z,31.08
2023-02-27T11:18:26.158Z,21.27
2023-02-27T11:20:54.401Z,28.80
2023-02-27T11:23:24.048Z,33.30
2023-02-27T11:25:51.332Z,32.92
2023-02-27T11:28:30.779Z,27.63
2023-02-27T11:31:07.498Z,35.05
2023-02-27T11:33:38.412Z,31.48
2023-02-27T11:36:05.927Z,25.42
2023-02-27T11:38:33.224Z,30.08
2023-02-27T11:41:03.663Z,27.02
2023-02-27T11:43:40.206Z,29.13
2023-02-27T11:46:32.648Z,32.03
2023-02-27T11:49:06.847Z,22.88
2023-02-27T11:51:55.384Z,24.15
2023-02-27T11:54:39.257Z,19.90
2023-02-27T11:57:25.815Z,32.40
2023-02-27T11:59:58.960Z,34.17
2023-02-27T12:02:46.944Z,20.25
2023-02-27T12:05:27.721Z,32.90
2023-02-27T12:08:23.039Z,30.92
2023-02-27T12:11:13.794Z,24.70
2023-02-27T12:13:45.512Z,28.85
2023-02-27T12:16:33.215Z,28.77
2023-02-27T12:19:33.547Z,31.88
2023-02-27T12:22:10.215Z,24.92
2023-02-27T12:24:40.656Z,26.13
2023-02-27T12:27:20.286Z,30.85
2023-02-27T12:30:00.542Z,31.30
2023-02-27T12:32:45.813Z,36.72
2023-02-27T12:35:28.362Z,27.77
2023-02-27T12:37:56.396Z,27.02
2023-02-27T12:40:36.265Z,29.67
2023-02-27T12:43:55.514Z,31.10
2023-02-27T12:46:42.334Z,25.05
2023-02-27T12:49:20.038Z,23.27
2023-02-27T12:51:52.608Z,29.15
2023-02-27T12:54:20.380Z,23.50
2023-02-27T12:57:01.042Z,20.42
2023-02-27T12:59:47.056Z,22.70
2023-02-27T13:02:29.670Z,26.58
2023-02-27T13:05:24.413Z,30.70
2023-02-27T13:07:53.916Z,29.48
2023-02-27T13:10:27.676Z,27.70
2023-02-27T13:13:20.630Z,36.00
2023-02-27T13:15:51.293Z,28.70
2023-02-27T13:18:31.767Z,36.22
2023-02-27T13:21:13.513Z,26.92
2023-02-27T13:23:58.527Z,24.35
2023-02-27T13:26:33.963Z,29.40
2023-02-27T13:29:01.337Z,32.80
2023-02-27T13:32:00.289Z,30.25
2023-02-27T13:34:41.626Z,33.97
2023-02-27T13:37:09.663Z,39.40
2023-02-27T13:39:48.978Z,26.42
2023-02-27T13:42:27.968Z,27.83
2023-02-27T13:45:10.746Z,23.63
2023-02-27T13:47:40.366Z,26.23
2023-02-27T13:50:21.219Z,33.15
2023-02-27T13:52:48.882Z,32.17
2023-02-27T13:55:35.272Z,41.58
2023-02-27T13:58:03.989Z,31.58
2023-02-27T14:00:33.346Z,33.15
2023-02-27T14:03:20.623Z,29.25
2023-02-27T14:05:51.554Z,30.20
2023-02-27T14:08:29.476Z,36.30
2023-02-27T14:11:11.240Z,32.58
2023-02-27T14:13:50.391Z,30.42
2023-02-27T14:16:42.148Z,34.95
2023-02-27T14:19:18.064Z,19.67
2023-02-27T14:22:02.994Z,42.13
2023-02-27T14:24:44.834Z,28.40
2023-02-27T14:27:19.110Z,23.05
2023-02-27T14:29:48.455Z,29.55
2023-02-27T14:32:21.501Z,25.45
2023-02-27T14:34:49.459Z,32.15
2023-02-27T14:37:23.425Z,26.13
2023-02-27T14:39:52.852Z,30.17
2023-02-27T14:42:58.073Z,24.08
2023-02-27T14:45:25.305Z,25.58
2023-02-27T14:47:53.134Z,23.60
2023-02-27T14:50:37.396Z,31.33
2023-02-27T14:53:06.029Z,23.15
2023-02-27T14:55:34.970Z,25.92
2023-02-27T14:58:10.154Z,22.05
2023-02-27T15:00:39.768Z,22.52
2023-02-27T15:03:12.048Z,22.83
2023-02-27T15:05:39.044Z,32.88
2023-02-27T15:08:05.987Z,25.17
2023-02-27T15:10:33.451Z,33.88
2023-02-27T15:13:01.995Z,29.17
2023-02-27T15:15:28.831Z,29.73
2023-02-27T15:17:55.958Z,27.42
2023-02-27T15:20:27.568Z,38.00
2023-02-27T15:22:54.558Z,34.17
2023-02-27T15:25:32.400Z,30.17
2023-02-27T15:28:04.916Z,24.75
2023-02-27T15:30:32.219Z,33.17
2023-02-27T15:33:00.558Z,24.55
2023-02-27T15:35:36.333Z,23.92
2023-02-27T15:38:04.017Z,24.33
2023-02-27T15:40:33.220Z,25.20
2023-02-27T15:43:01.620Z,32.55
2023-02-27T15:45:33.206Z,30.25
2023-02-27T15:48:00.402Z,24.63
2023-02-27T15:50:31.856Z,29.92
2023-02-27T15:53:19.740Z,31.88
2023-02-27T15:55:51.253Z,104.93
2023-02-27T15:58:24.683Z,31.77
2023-02-27T16:01:00.879Z,35.78
2023-02-27T16:03:35.816Z,28.20
2023-02-27T16:06:03.474Z,28.55
2023-02-27T16:08:31.744Z,24.15
2023-02-27T16:11:00.552Z,25.92
2023-02-27T16:13:54.394Z,32.40
2023-02-27T16:16:35.112Z,27.20
2023-02-27T16:19:26.987Z,26.23
2023-02-27T16:22:12.564Z,26.13
2023-02-27T16:24:39.293Z,25.92
2023-02-27T16:27:06.461Z,17.20
2023-02-27T16:29:43.085Z,33.53
2023-02-27T16:32:22.179Z,29.63
2023-02-27T16:34:48.979Z,34.58
2023-02-27T16:37:27.131Z,43.17
2023-02-27T16:39:54.719Z,44.25
2023-02-27T16:42:22.067Z,36.50
2023-02-27T16:44:48.758Z,25.98
2023-02-27T16:47:15.621Z,40.90
2023-02-27T16:49:44.539Z,43.03
2023-02-27T16:52:12.192Z,57.35
2023-02-27T16:54:39.070Z,40.17
2023-02-27T16:57:05.878Z,44.38
2023-02-27T16:59:35.152Z,33.80
2023-02-27T17:02:07.898Z,112.85
2023-02-27T17:04:36.275Z,57.28
2023-02-27T17:07:06.378Z,48.90
2023-02-27T17:09:33.682Z,44.88
2023-02-27T17:12:00.405Z,42.85
2023-02-27T17:14:27.176Z,42.85
2023-02-27T17:16:53.941Z,53.33
2023-02-27T17:19:22.280Z,58.40
2023-02-27T17:21:49.440Z,53.17
2023-02-27T17:24:16.515Z,80.10
2023-02-27T17:26:43.286Z,81.32
2023-02-27T17:29:10.174Z,71.13
2023-02-27T17:31:37.847Z,75.22
2023-02-27T17:34:05.579Z,78.07
2023-02-27T17:36:32.534Z,77.82
2023-02-27T17:39:02.768Z,68.03
2023-02-27T17:41:31.485Z,67.75
2023-02-27T17:44:01.916Z,71.32
2023-02-27T17:46:30.524Z,75.10
2023-02-27T17:49:01.856Z,80.88
2023-02-27T17:51:30.285Z,78.22
2023-02-27T17:53:57.735Z,90.03
2023-02-27T17:56:24.540Z,86.65
2023-02-27T17:58:51.427Z,68.07
2023-02-27T18:01:23.013Z,101.78
2023-02-27T18:03:50.380Z,59.33
2023-02-27T18:06:18.005Z,64.85
2023-02-27T18:08:45.150Z,69.85
2023-02-27T18:11:14.499Z,86.32
2023-02-27T18:13:42.096Z,85.07
2023-02-27T18:16:10.248Z,84.75
2023-02-27T18:18:42.626Z,93.07
2023-02-27T18:21:20.068Z,108.18
2023-02-27T18:23:48.210Z,68.75
2023-02-27T18:26:32.658Z,78.25
2023-02-27T18:29:02.016Z,91.80
2023-02-27T18:31:37.626Z,105.75
2023-02-27T18:34:05.561Z,78.20
2023-02-27T18:36:32.833Z,50.88
2023-02-27T18:39:00.191Z,57.22
2023-02-27T18:41:27.814Z,67.68
2023-02-27T18:43:55.537Z,78.68
2023-02-27T18:46:22.778Z,86.22
2023-02-27T18:48:49.950Z,80.05
2023-02-27T18:51:18.326Z,80.65
2023-02-27T18:53:48.549Z,92.72
2023-02-27T18:56:18.173Z,95.78
2023-02-27T18:58:45.240Z,98.13
2023-02-27T19:01:28.869Z,108.65
2023-02-27T19:04:00.555Z,118.90
2023-02-27T19:06:28.176Z,130.10
2023-02-27T19:08:55.265Z,153.32
2023-02-27T19:11:33.457Z,130.25
2023-02-27T19:14:01.974Z,105.40
2023-02-27T19:16:29.675Z,87.25
2023-02-27T19:19:01.314Z,84.30
2023-02-27T19:21:28.910Z,81.25
2023-02-27T19:23:55.876Z,78.57
2023-02-27T19:26:24.315Z,70.63
2023-02-27T19:28:53.879Z,67.13
2023-02-27T19:31:22.765Z,48.95
2023-02-27T19:33:49.920Z,41.50
2023-02-27T19:36:19.883Z,50.97
2023-02-27T19:38:46.783Z,42.00
2023-02-27T19:41:16.844Z,43.53
2023-02-27T19:43:44.328Z,46.33
2023-02-27T19:46:17.173Z,48.88
2023-02-27T19:48:45.335Z,47.78
2023-02-27T19:51:14.164Z,59.67
2023-02-27T19:53:42.485Z,71.30
2023-02-27T19:56:21.190Z,53.72
2023-02-27T19:58:48.364Z,61.70
2023-02-27T20:01:26.689Z,52.80
2023-02-27T20:03:55.211Z,139.93
2023-02-27T20:06:24.715Z,72.03
2023-02-27T20:08:52.836Z,41.90
2023-02-27T20:11:21.745Z,53.75
2023-02-27T20:13:49.869Z,49.53
2023-02-27T20:16:19.409Z,43.83
2023-02-27T20:18:46.396Z,44.53
2023-02-27T20:21:20.275Z,48.25
2023-02-27T20:23:47.832Z,69.15
2023-02-27T20:26:20.627Z,68.00
2023-02-27T20:28:50.200Z,47.17
2023-02-27T20:31:19.156Z,56.15
2023-02-27T20:33:46.651Z,61.33
2023-02-27T20:36:14.093Z,54.72
2023-02-27T20:38:41.694Z,58.63
2023-02-27T20:41:10.975Z,44.05
2023-02-27T20:43:38.774Z,43.83
2023-02-27T20:46:08.437Z,43.35
2023-02-27T20:48:35.190Z,45.08
2023-02-27T20:51:11.837Z,40.80
2023-02-27T20:53:40.032Z,47.20
2023-02-27T20:56:08.220Z,46.70
2023-02-27T20:58:35.457Z,44.13
2023-02-27T21:01:05.901Z,47.50
2023-02-27T21:03:38.493Z,48.10
2023-02-27T21:06:07.645Z,63.38
2023-02-27T21:08:39.500Z,54.15
2023-02-27T21:11:08.432Z,61.13
2023-02-27T21:13:36.373Z,49.88
2023-02-27T21:16:05.069Z,47.47
2023-02-27T21:18:32.509Z,57.65
2023-02-27T21:21:23.202Z,43.88
2023-02-27T21:23:50.713Z,48.78
2023-02-27T21:26:18.918Z,47.03
2023-02-27T21:28:52.267Z,49.70
2023-02-27T21:31:21.605Z,31.38
2023-02-27T21:33:48.699Z,34.40
2023-02-27T21:36:15.638Z,28.45
2023-02-27T21:38:42.422Z,37.72
2023-02-27T21:41:11.952Z,40.55
2023-02-27T21:43:42.591Z,41.60
2023-02-27T21:46:12.430Z,47.53
2023-02-27T21:48:39.637Z,47.50
2023-02-27T21:51:07.302Z,59.72
2023-02-27T21:53:36.655Z,49.47
2023-02-27T21:56:09.902Z,58.67
2023-02-27T21:58:37.625Z,43.40
2023-02-27T22:01:15.499Z,52.80
2023-02-27T22:03:44.100Z,44.85
2023-02-27T22:06:11.600Z,50.05
2023-02-27T22:08:39.107Z,50.60
2023-02-27T22:11:06.470Z,50.03
2023-02-27T22:13:33.597Z,51.25
2023-02-27T22:16:08.911Z,51.75
2023-02-27T22:18:36.196Z,42.75
2023-02-27T22:21:07.055Z,38.08
2023-02-27T22:23:33.782Z,37.30
2023-02-27T22:26:01.702Z,32.65
2023-02-27T22:28:30.522Z,33.83
2023-02-27T22:31:13.285Z,33.67
2023-02-27T22:33:41.556Z,32.95
2023-02-27T22:36:13.729Z,35.47
2023-02-27T22:38:40.764Z,54.20
2023-02-27T22:41:10.448Z,45.42
2023-02-27T22:43:39.771Z,41.63
2023-02-27T22:46:07.619Z,36.83
2023-02-27T22:48:34.764Z,37.30
2023-02-27T22:51:03.287Z,38.63
2023-02-27T22:53:33.026Z,37.05
2023-02-27T22:56:00.834Z,37.88
2023-02-27T22:58:27.691Z,34.33
2023-02-27T23:00:54.531Z,36.00
2023-02-27T23:03:21.236Z,38.60
2023-02-27T23:05:49.266Z,43.30
2023-02-27T23:08:16.970Z,38.33
2023-02-27T23:10:43.670Z,44.97
2023-02-27T23:13:11.179Z,40.90
2023-02-27T23:15:38.758Z,44.22
2023-02-27T23:18:05.716Z,43.33
2023-02-27T23:20:37.039Z,43.20
2023-02-27T23:23:05.482Z,47.00
2023-02-27T23:25:37.447Z,47.92
2023-02-27T23:28:05.831Z,50.28
2023-02-27T23:30:33.996Z,44.55
2023-02-27T23:33:01.138Z,58.28
2023-02-27T23:35:28.775Z,48.88
2023-02-27T23:37:58.773Z,42.42
2023-02-27T23:40:27.816Z,42.92
2023-02-27T23:43:14.541Z,35.47
2023-02-27T23:45:41.805Z,38.38
2023-02-27T23:48:09.266Z,43.92
2023-02-27T23:50:39.113Z,44.20
2023-02-27T23:53:07.557Z,46.72
2023-02-27T23:55:36.303Z,47.78
2023-02-27T23:58:06.480Z,43.47
